Pomerene, Arizona
Current Conditions -  °F | °C
As of 2:56 PM on Wednesday 22 Oct 2014 (Local Time) from KALK Reporting Station
Clear Clear  
Wind Chill: 77°   Ceiling: Unl
Heat Index: 77°   Visibility: 10mi
Dew Point: 40°   Wind: 8mph
Humidity: 26%   Direction: 80°E
Pressure: 30.1"   Gusts: NA
Location:  32°N, 110.29°W
Report Text: KALK 222156Z AUTO 08007KT 10SM CLR 25/04 A3010 RMK AO2 SLP116 T02500044 TSNO
Loading
Personal Weather Stations






























Interactive Weather Map
Tropical Storm Tracking
New forecast layout! Learn more

10-Day Weather Forecast

Advertisements
Track Severe Weather on mobile